Time;durP1;ratioP1;P1;durP2;ratioP2;P2;SDS_P1;SDS_P2;PMS_P1;PMS_P2;Temp;Humidity;BMP_temperature;BMP_pressure;BME280_temperature;BME280_humidity;BME280_pressure;Samples;Min_cycle;Max_cycle;Signal;HPM_P1;HPM_P2
2021/07/28 00:00:08;;;;;;;8.40;6.87;;;15.90;99.90;;;;;;5068307;28;20457;-77
2021/07/28 00:02:35;;;;;;;13.90;7.83;;;15.90;99.90;;;;;;5070985;28;20428;-79
2021/07/28 00:05:03;;;;;;;7.33;6.33;;;15.90;99.90;;;;;;5064043;28;20487;-80
2021/07/28 00:07:30;;;;;;;8.70;6.70;;;15.80;99.90;;;;;;5067569;28;20436;-78
2021/07/28 00:09:57;;;;;;;8.43;7.37;;;15.80;99.90;;;;;;5067443;28;20765;-77
2021/07/28 00:12:24;;;;;;;7.87;7.07;;;15.80;99.90;;;;;;5071588;28;20456;-80
2021/07/28 00:14:51;;;;;;;9.40;7.37;;;15.80;99.90;;;;;;5068243;28;20916;-80
2021/07/28 00:17:18;;;;;;;8.00;7.17;;;15.80;99.90;;;;;;5071026;28;20805;-80
2021/07/28 00:19:51;;;;;;;7.80;6.87;;;15.80;99.90;;;;;;5070929;28;20460;-81
2021/07/28 00:25:01;;;;;;;9.70;7.80;;;15.80;99.90;;;;;;5070287;28;20471;-81
2021/07/28 00:27:28;;;;;;;7.97;7.13;;;15.70;99.90;;;;;;5069483;28;20447;-79
2021/07/28 00:29:54;;;;;;;8.17;7.30;;;15.70;99.90;;;;;;5069110;28;21729;-79
2021/07/28 00:32:21;;;;;;;7.97;7.20;;;15.70;99.90;;;;;;5070657;28;20419;-80
2021/07/28 00:34:48;;;;;;;8.80;7.90;;;15.70;99.90;;;;;;5072973;28;20471;-76
2021/07/28 00:37:15;;;;;;;8.90;7.60;;;15.70;99.90;;;;;;5073355;28;20451;-78
2021/07/28 00:39:43;;;;;;;9.50;8.37;;;15.70;99.90;;;;;;5069448;28;20426;-77
2021/07/28 00:42:10;;;;;;;10.10;7.50;;;15.70;99.90;;;;;;5075400;28;21043;-80
2021/07/28 00:44:37;;;;;;;8.43;7.30;;;15.70;99.90;;;;;;5073428;28;20793;-80
2021/07/28 00:47:04;;;;;;;8.13;7.33;;;15.70;99.90;;;;;;5075216;28;20896;-78
2021/07/28 00:49:31;;;;;;;8.00;7.30;;;15.70;99.90;;;;;;5066635;28;20476;-78
2021/07/28 00:52:02;;;;;;;9.23;8.23;;;15.70;99.90;;;;;;5067171;28;20433;-78
2021/07/28 00:54:30;;;;;;;8.00;7.20;;;15.70;99.90;;;;;;5067327;28;20570;-79
2021/07/28 00:56:59;;;;;;;9.60;7.80;;;15.60;99.90;;;;;;5069679;28;20435;-79
2021/07/28 00:59:26;;;;;;;10.33;8.43;;;15.70;99.90;;;;;;5067717;28;20791;-82
2021/07/28 01:01:53;;;;;;;10.17;8.57;;;15.60;99.90;;;;;;5065234;28;20459;-83
2021/07/28 01:04:20;;;;;;;9.97;8.23;;;15.70;99.90;;;;;;5068824;28;20403;-81
2021/07/28 01:06:48;;;;;;;9.70;8.20;;;15.70;99.90;;;;;;5064550;28;20495;-76
2021/07/28 01:09:15;;;;;;;9.53;8.23;;;15.70;99.90;;;;;;5066707;28;20464;-79
2021/07/28 01:11:42;;;;;;;9.23;8.33;;;15.70;99.90;;;;;;5057631;28;20427;-82
2021/07/28 01:14:10;;;;;;;8.87;7.93;;;15.70;99.90;;;;;;5069706;28;20411;-80
2021/07/28 01:16:40;;;;;;;9.60;7.63;;;15.70;99.90;;;;;;5067355;28;20555;-82
2021/07/28 01:19:11;;;;;;;8.20;7.40;;;15.70;99.90;;;;;;5065540;28;20460;-82
2021/07/28 01:21:38;;;;;;;7.93;7.13;;;15.70;99.90;;;;;;5063997;28;20876;-80
2021/07/28 01:24:06;;;;;;;10.40;8.60;;;15.70;99.90;;;;;;5065466;28;20479;-82
2021/07/28 01:26:36;;;;;;;11.43;8.73;;;15.70;99.90;;;;;;5066876;28;20840;-80
2021/07/28 01:29:03;;;;;;;15.00;9.57;;;15.70;99.90;;;;;;5063850;28;20446;-81
2021/07/28 01:31:30;;;;;;;10.70;9.30;;;15.70;99.90;;;;;;5064441;28;20472;-82
2021/07/28 01:33:57;;;;;;;10.37;8.87;;;15.70;99.90;;;;;;5066171;28;20436;-79
2021/07/28 01:36:24;;;;;;;12.60;9.03;;;15.70;99.90;;;;;;5068053;28;20432;-80
2021/07/28 01:38:52;;;;;;;11.93;9.93;;;15.80;99.90;;;;;;5064708;28;20996;-84
2021/07/28 01:41:20;;;;;;;12.47;8.80;;;15.90;99.90;;;;;;5069015;28;21004;-82
2021/07/28 01:43:47;;;;;;;9.70;8.70;;;15.80;99.90;;;;;;5068054;28;20559;-78
2021/07/28 01:46:14;;;;;;;10.40;9.10;;;15.80;99.90;;;;;;5069191;28;20502;-80
2021/07/28 01:48:41;;;;;;;10.57;9.47;;;15.80;99.90;;;;;;5061940;28;20468;-79
2021/07/28 01:51:08;;;;;;;16.40;9.70;;;15.80;99.90;;;;;;5049874;28;20486;-80
2021/07/28 01:53:35;;;;;;;11.50;9.13;;;15.80;99.90;;;;;;5067475;28;20443;-84
2021/07/28 01:56:03;;;;;;;9.07;8.10;;;15.80;99.90;;;;;;5067257;28;20804;-77
2021/07/28 01:58:31;;;;;;;10.10;9.00;;;15.80;99.90;;;;;;5067754;28;20769;-80
2021/07/28 02:00:59;;;;;;;10.33;9.33;;;15.80;99.90;;;;;;5062845;28;20463;-80
2021/07/28 02:03:26;;;;;;;14.90;8.50;;;15.80;99.90;;;;;;5065463;28;20977;-81
2021/07/28 02:05:52;;;;;;;12.67;9.63;;;15.90;99.90;;;;;;5066124;28;20486;-81
2021/07/28 02:08:19;;;;;;;10.73;9.63;;;15.90;99.90;;;;;;5069141;28;20457;-83
2021/07/28 02:10:47;;;;;;;9.63;8.70;;;15.90;99.90;;;;;;5067729;28;20406;-84
2021/07/28 02:13:16;;;;;;;9.90;8.63;;;15.80;99.90;;;;;;5062761;28;20431;-80
2021/07/28 02:15:45;;;;;;;12.53;10.17;;;15.90;99.90;;;;;;5071337;28;20415;-79
2021/07/28 02:18:12;;;;;;;11.83;9.93;;;15.90;99.90;;;;;;5068388;28;20452;-77
2021/07/28 02:20:39;;;;;;;10.00;9.00;;;15.80;99.90;;;;;;5070948;28;20419;-83
2021/07/28 02:23:07;;;;;;;10.43;8.60;;;15.90;99.90;;;;;;5065064;28;20820;-82
2021/07/28 02:25:34;;;;;;;9.93;8.83;;;15.90;99.90;;;;;;5047547;28;20468;-80
2021/07/28 02:28:01;;;;;;;13.93;9.07;;;15.90;99.90;;;;;;5069387;28;20848;-79
2021/07/28 02:30:28;;;;;;;10.00;9.00;;;15.90;99.90;;;;;;5071787;28;20900;-79
2021/07/28 02:32:56;;;;;;;13.13;10.27;;;15.90;99.90;;;;;;5068737;28;20452;-87
2021/07/28 02:35:23;;;;;;;11.63;9.20;;;15.90;99.90;;;;;;5072237;28;20479;-80
2021/07/28 02:37:50;;;;;;;10.80;9.70;;;15.90;99.90;;;;;;5069887;28;20580;-78
2021/07/28 02:40:19;;;;;;;12.10;9.53;;;15.90;99.90;;;;;;5074901;28;20410;-82
2021/07/28 02:42:46;;;;;;;12.43;9.70;;;15.90;99.90;;;;;;5072090;28;20459;-78
2021/07/28 02:45:13;;;;;;;16.87;10.90;;;15.90;99.90;;;;;;5071610;28;20403;-81
2021/07/28 02:47:40;;;;;;;12.20;9.90;;;15.90;99.90;;;;;;5068755;28;20944;-79
2021/07/28 02:50:09;;;;;;;10.57;9.40;;;15.90;99.90;;;;;;5070331;28;20431;-81
2021/07/28 02:52:37;;;;;;;10.07;9.00;;;15.90;99.90;;;;;;5072271;28;20442;-78
2021/07/28 02:55:06;;;;;;;13.23;10.73;;;15.90;99.90;;;;;;5067173;28;20439;-81
2021/07/28 02:57:33;;;;;;;13.70;10.53;;;16.00;99.90;;;;;;5069813;28;20425;-79
2021/07/28 03:00:00;;;;;;;11.50;9.13;;;15.90;99.90;;;;;;5058190;28;20517;-82
2021/07/28 03:02:27;;;;;;;12.50;11.03;;;15.90;99.90;;;;;;5069618;28;20415;-77
2021/07/28 03:04:55;;;;;;;11.00;9.97;;;15.90;99.90;;;;;;5068781;28;20408;-79
2021/07/28 03:07:23;;;;;;;10.87;9.87;;;15.90;99.90;;;;;;5068219;28;20463;-79
2021/07/28 03:09:50;;;;;;;10.33;9.27;;;15.90;99.90;;;;;;5071813;28;20448;-80
2021/07/28 03:12:17;;;;;;;12.80;10.60;;;15.90;99.90;;;;;;5070023;28;20983;-82
2021/07/28 03:14:44;;;;;;;11.33;9.80;;;15.90;99.90;;;;;;5071166;28;20500;-80
2021/07/28 03:17:11;;;;;;;10.80;9.70;;;15.90;99.90;;;;;;5067109;28;20787;-78
2021/07/28 03:19:38;;;;;;;11.70;10.50;;;15.90;99.90;;;;;;5069469;28;20441;-82
2021/07/28 03:22:05;;;;;;;13.47;11.10;;;15.90;99.90;;;;;;5070680;28;20436;-79
2021/07/28 03:24:33;;;;;;;12.33;9.90;;;15.90;99.90;;;;;;5068588;28;20907;-79
2021/07/28 03:27:00;;;;;;;10.80;9.70;;;15.90;99.90;;;;;;5070039;28;20491;-79
2021/07/28 03:29:27;;;;;;;11.60;10.03;;;15.80;99.90;;;;;;5070056;28;20454;-80
2021/07/28 03:31:54;;;;;;;12.80;10.17;;;15.80;99.90;;;;;;5065154;28;20427;-80
2021/07/28 03:34:21;;;;;;;10.50;9.30;;;15.90;99.90;;;;;;5065379;28;20754;-84
2021/07/28 03:36:47;;;;;;;13.13;11.13;;;15.90;99.90;;;;;;5067258;28;20427;-78
2021/07/28 03:39:14;;;;;;;11.83;10.10;;;15.80;99.90;;;;;;5069557;28;20981;-77
2021/07/28 03:41:43;;;;;;;14.37;9.93;;;15.80;99.90;;;;;;5070888;28;20420;-79
2021/07/28 03:44:09;;;;;;;14.07;10.43;;;15.80;99.90;;;;;;5068508;28;20460;-81
2021/07/28 03:46:36;;;;;;;12.00;10.80;;;15.80;99.90;;;;;;5067970;28;20451;-82
2021/07/28 03:49:03;;;;;;;12.27;10.97;;;15.80;99.90;;;;;;5067396;28;20457;-78
2021/07/28 03:51:30;;;;;;;11.17;9.97;;;15.80;99.90;;;;;;5071389;28;20444;-80
2021/07/28 03:53:57;;;;;;;13.83;11.10;;;15.80;99.90;;;;;;5067563;28;20447;-80
2021/07/28 03:56:24;;;;;;;12.33;10.10;;;15.80;99.90;;;;;;5070790;28;20415;-81
2021/07/28 03:58:53;;;;;;;12.80;11.20;;;15.80;99.90;;;;;;5067661;28;21733;-79
2021/07/28 04:01:21;;;;;;;11.57;10.33;;;15.80;99.90;;;;;;5066619;28;20446;-80
2021/07/28 04:03:48;;;;;;;11.07;9.93;;;15.70;99.90;;;;;;5071178;28;20445;-80
2021/07/28 04:06:15;;;;;;;11.57;10.37;;;15.70;99.90;;;;;;5069288;28;20488;-83
2021/07/28 04:08:42;;;;;;;11.43;10.20;;;15.70;99.90;;;;;;5070598;28;20543;-81
2021/07/28 04:11:09;;;;;;;13.90;11.37;;;15.70;99.90;;;;;;5068852;28;20452;-81
2021/07/28 04:13:36;;;;;;;13.27;10.13;;;15.70;99.90;;;;;;5067550;28;20438;-79
2021/07/28 04:16:04;;;;;;;12.00;10.70;;;15.70;99.90;;;;;;5067314;28;20436;-83
2021/07/28 04:18:31;;;;;;;15.37;10.77;;;15.70;99.90;;;;;;5067908;28;20475;-80
2021/07/28 04:20:58;;;;;;;13.90;10.23;;;15.70;99.90;;;;;;5070658;28;21108;-78
2021/07/28 04:23:25;;;;;;;15.07;11.17;;;15.70;99.90;;;;;;5066932;28;20441;-79
2021/07/28 04:25:52;;;;;;;15.23;10.63;;;15.70;99.90;;;;;;5072337;28;20418;-81
2021/07/28 04:28:19;;;;;;;11.20;9.57;;;15.80;99.90;;;;;;5071405;28;20487;-83
2021/07/28 04:30:46;;;;;;;14.70;10.50;;;15.80;99.90;;;;;;5072569;28;20940;-80
2021/07/28 04:33:14;;;;;;;12.13;9.23;;;15.80;99.90;;;;;;5070269;28;20452;-77
2021/07/28 04:35:41;;;;;;;11.07;9.97;;;15.70;99.90;;;;;;5066892;28;20422;-81
2021/07/28 04:38:08;;;;;;;13.50;10.80;;;16.00;99.90;;;;;;5064341;28;20989;-78
2021/07/28 04:40:35;;;;;;;14.20;11.00;;;15.80;99.90;;;;;;5066341;28;20431;-82
2021/07/28 04:43:02;;;;;;;13.10;10.10;;;15.80;99.90;;;;;;5065567;28;20426;-81
2021/07/28 04:45:28;;;;;;;12.17;9.77;;;15.80;99.90;;;;;;5070368;28;20919;-79
2021/07/28 04:47:55;;;;;;;13.60;9.90;;;15.90;99.90;;;;;;5070258;28;20463;-78
2021/07/28 04:50:23;;;;;;;10.47;9.27;;;15.90;99.90;;;;;;5070749;28;20467;-80
2021/07/28 04:52:50;;;;;;;10.60;9.60;;;15.80;99.90;;;;;;5072056;28;20438;-77
2021/07/28 04:55:17;;;;;;;10.63;9.13;;;15.90;99.90;;;;;;5069160;28;20452;-80
2021/07/28 04:57:44;;;;;;;9.67;8.63;;;15.90;99.90;;;;;;5066446;28;20975;-77
2021/07/28 05:00:12;;;;;;;11.00;9.80;;;15.90;99.90;;;;;;5066420;28;20427;-81
2021/07/28 05:02:39;;;;;;;11.50;8.77;;;16.00;99.90;;;;;;5070223;28;20449;-78
2021/07/28 05:05:06;;;;;;;10.30;9.00;;;16.00;99.90;;;;;;5068529;28;20467;-79
2021/07/28 05:07:35;;;;;;;12.00;9.93;;;16.00;99.90;;;;;;5069553;28;20492;-82
2021/07/28 05:10:01;;;;;;;10.00;9.10;;;16.00;99.90;;;;;;5068733;28;20477;-79
2021/07/28 05:12:28;;;;;;;11.13;8.93;;;16.00;99.90;;;;;;5064684;28;21176;-82
2021/07/28 05:14:57;;;;;;;9.80;8.43;;;16.10;99.90;;;;;;5068098;28;20942;-79
2021/07/28 05:17:24;;;;;;;8.73;7.93;;;16.00;99.90;;;;;;5062833;28;20460;-80
2021/07/28 05:19:51;;;;;;;9.70;8.70;;;16.00;99.90;;;;;;5069104;28;20411;-81
2021/07/28 05:22:18;;;;;;;12.43;8.97;;;16.10;99.90;;;;;;5068029;28;20457;-81
2021/07/28 05:24:47;;;;;;;9.53;8.17;;;16.10;99.90;;;;;;5066915;28;20477;-80
2021/07/28 05:27:14;;;;;;;9.27;7.73;;;16.10;99.90;;;;;;5065996;28;20451;-81
2021/07/28 05:29:41;;;;;;;11.97;8.40;;;16.10;99.90;;;;;;5063378;28;20449;-77
2021/07/28 05:32:08;;;;;;;9.37;7.53;;;16.10;99.90;;;;;;5069325;28;20812;-81
2021/07/28 05:34:35;;;;;;;8.73;7.83;;;16.20;99.90;;;;;;5067402;28;20870;-85
2021/07/28 05:37:02;;;;;;;9.67;8.17;;;16.20;99.90;;;;;;5069504;28;20448;-79
2021/07/28 05:39:29;;;;;;;9.53;8.40;;;16.20;99.90;;;;;;5067624;28;20457;-77
2021/07/28 05:41:57;;;;;;;9.07;7.77;;;16.20;99.90;;;;;;5066044;28;20405;-79
2021/07/28 05:44:25;;;;;;;11.87;8.67;;;16.30;99.90;;;;;;5065585;28;20431;-79
2021/07/28 05:46:52;;;;;;;15.23;8.30;;;16.30;99.90;;;;;;5065244;28;20465;-77
2021/07/28 05:49:19;;;;;;;11.90;9.27;;;16.30;99.90;;;;;;5065883;28;20451;-78
2021/07/28 05:51:46;;;;;;;9.53;8.50;;;16.30;99.90;;;;;;5061944;28;20443;-79
2021/07/28 05:54:13;;;;;;;9.83;8.60;;;16.30;99.90;;;;;;5068911;28;20872;-79
2021/07/28 05:56:40;;;;;;;10.67;8.97;;;16.30;99.90;;;;;;5062396;28;20481;-78
2021/07/28 05:59:08;;;;;;;10.40;8.47;;;16.40;99.90;;;;;;5063281;28;20552;-79
2021/07/28 06:01:35;;;;;;;9.50;8.47;;;16.40;99.90;;;;;;5068235;28;20449;-78
2021/07/28 06:04:02;;;;;;;10.40;8.10;;;16.40;99.90;;;;;;5066804;28;20864;-84
2021/07/28 06:06:29;;;;;;;8.87;7.70;;;16.50;99.90;;;;;;5067982;28;20461;-81
2021/07/28 06:08:56;;;;;;;11.07;9.40;;;16.50;99.90;;;;;;5065999;28;20460;-80
2021/07/28 06:11:23;;;;;;;10.40;7.97;;;16.50;99.90;;;;;;5064394;28;20430;-78
2021/07/28 06:13:50;;;;;;;10.13;8.57;;;16.60;99.90;;;;;;5066501;28;20448;-80
2021/07/28 06:16:19;;;;;;;10.73;8.40;;;16.70;99.90;;;;;;5088961;28;20436;-81
2021/07/28 06:18:46;;;;;;;8.50;7.70;;;16.70;99.90;;;;;;5067245;28;20437;-80
2021/07/28 06:21:13;;;;;;;10.80;7.97;;;16.80;99.90;;;;;;5066024;28;20444;-77
2021/07/28 06:23:41;;;;;;;8.40;7.50;;;16.90;99.90;;;;;;5062051;28;20562;-80
2021/07/28 06:26:09;;;;;;;8.53;7.70;;;16.90;99.90;;;;;;5066168;28;20440;-78
2021/07/28 06:28:35;;;;;;;7.67;6.83;;;16.90;99.90;;;;;;5056600;28;20498;-80
2021/07/28 06:31:02;;;;;;;9.93;7.33;;;16.90;99.90;;;;;;5060048;28;20450;-79
2021/07/28 06:33:31;;;;;;;8.67;7.50;;;17.00;99.90;;;;;;5062785;28;20460;-79
2021/07/28 06:35:57;;;;;;;9.13;7.10;;;17.10;99.90;;;;;;5069334;28;20814;-77
2021/07/28 06:38:24;;;;;;;10.27;7.20;;;17.20;99.90;;;;;;5068669;28;20902;-81
2021/07/28 06:40:51;;;;;;;9.57;7.40;;;17.20;99.90;;;;;;5066599;28;20459;-77
2021/07/28 06:43:18;;;;;;;7.63;6.83;;;17.30;99.90;;;;;;5068879;28;20448;-78
2021/07/28 06:45:45;;;;;;;10.70;7.47;;;17.40;99.90;;;;;;5066237;28;20431;-79
2021/07/28 06:48:12;;;;;;;8.33;7.40;;;17.50;99.90;;;;;;5063682;28;20506;-78
2021/07/28 06:50:40;;;;;;;8.03;6.97;;;17.50;99.90;;;;;;5062368;28;20479;-77
2021/07/28 06:53:07;;;;;;;8.13;6.87;;;17.60;99.90;;;;;;5061348;28;20495;-77
2021/07/28 06:55:34;;;;;;;8.80;7.00;;;17.70;99.90;;;;;;5063848;28;20463;-78
2021/07/28 06:58:01;;;;;;;9.10;7.00;;;17.90;99.90;;;;;;5061037;28;20476;-78
2021/07/28 07:00:28;;;;;;;9.10;7.20;;;18.00;99.90;;;;;;5068219;28;20487;-79
2021/07/28 07:02:59;;;;;;;8.50;7.03;;;18.20;99.90;;;;;;5070031;28;20458;-77
2021/07/28 07:05:26;;;;;;;6.57;5.80;;;18.40;99.90;;;;;;5066107;28;20456;-78
2021/07/28 07:07:54;;;;;;;7.17;6.47;;;18.60;99.90;;;;;;5066740;28;20488;-79
2021/07/28 07:10:22;;;;;;;6.27;5.47;;;18.60;99.90;;;;;;5063126;28;20461;-77
2021/07/28 07:12:48;;;;;;;6.40;5.80;;;18.60;99.90;;;;;;5066725;28;20443;-76
2021/07/28 07:15:16;;;;;;;7.60;6.80;;;18.70;99.90;;;;;;5070137;28;20439;-80
2021/07/28 07:17:43;;;;;;;6.80;6.10;;;18.80;99.90;;;;;;5067833;28;20467;-78
2021/07/28 07:20:11;;;;;;;7.63;6.67;;;18.90;99.90;;;;;;5065336;28;20468;-80
2021/07/28 07:22:38;;;;;;;8.03;6.30;;;18.90;99.90;;;;;;5064664;28;20486;-77
2021/07/28 07:25:08;;;;;;;7.80;5.97;;;18.90;99.90;;;;;;5068667;28;20439;-77
2021/07/28 07:27:34;;;;;;;6.57;5.97;;;18.90;99.90;;;;;;5067437;28;20487;-77
2021/07/28 07:30:02;;;;;;;7.47;6.30;;;18.90;99.90;;;;;;5071039;28;20532;-78
2021/07/28 07:32:30;;;;;;;7.90;6.73;;;18.90;99.90;;;;;;5069605;28;20820;-79
2021/07/28 07:34:57;;;;;;;6.63;6.00;;;18.90;99.90;;;;;;5069579;28;20452;-78
2021/07/28 07:37:24;;;;;;;7.00;6.03;;;18.90;99.90;;;;;;5068177;28;20432;-79
2021/07/28 07:39:51;;;;;;;7.43;6.57;;;18.90;99.90;;;;;;5062483;28;20456;-79
2021/07/28 07:42:19;;;;;;;11.10;7.37;;;18.80;99.90;;;;;;5066933;28;20450;-79
2021/07/28 07:44:48;;;;;;;9.03;6.50;;;18.70;99.90;;;;;;5070275;28;20440;-80
2021/07/28 07:47:15;;;;;;;9.53;6.23;;;18.80;99.90;;;;;;5067694;28;20919;-77
2021/07/28 07:49:42;;;;;;;7.87;7.03;;;18.70;99.90;;;;;;5069083;28;20449;-77
2021/07/28 07:52:09;;;;;;;6.80;6.10;;;18.80;99.90;;;;;;5066750;28;20437;-76
2021/07/28 07:54:36;;;;;;;7.67;6.40;;;18.80;99.90;;;;;;5070138;28;20460;-84
2021/07/28 07:57:03;;;;;;;7.63;6.93;;;18.80;99.90;;;;;;5065436;28;20455;-77
2021/07/28 07:59:31;;;;;;;9.83;7.60;;;18.80;99.90;;;;;;5060463;28;20472;-79
2021/07/28 08:01:58;;;;;;;9.40;7.10;;;18.80;99.90;;;;;;5061656;28;20821;-78
2021/07/28 08:04:25;;;;;;;8.50;6.80;;;18.90;99.90;;;;;;5067180;28;20440;-77
2021/07/28 08:06:52;;;;;;;9.87;7.60;;;19.00;99.90;;;;;;5067798;28;20451;-76
2021/07/28 08:09:19;;;;;;;7.37;6.27;;;19.10;99.90;;;;;;5066410;28;20472;-76
2021/07/28 08:11:46;;;;;;;7.50;6.53;;;19.10;99.90;;;;;;5068949;28;20440;-78
2021/07/28 08:14:13;;;;;;;9.30;7.70;;;19.10;99.90;;;;;;5068955;28;20460;-79
2021/07/28 08:16:41;;;;;;;7.37;6.53;;;19.10;99.90;;;;;;5069844;28;20458;-77
2021/07/28 08:19:08;;;;;;;7.27;6.67;;;19.10;99.90;;;;;;5065718;28;21297;-77
2021/07/28 08:21:35;;;;;;;8.70;7.30;;;19.00;99.90;;;;;;5067597;28;20448;-77
2021/07/28 08:24:02;;;;;;;7.80;7.00;;;19.10;99.90;;;;;;5066183;28;20455;-78
2021/07/28 08:26:29;;;;;;;7.77;6.10;;;19.10;99.90;;;;;;5068619;28;20484;-76
2021/07/28 08:28:55;;;;;;;9.73;7.63;;;19.20;99.90;;;;;;5069388;28;28264;-82
2021/07/28 08:31:22;;;;;;;8.67;6.13;;;19.30;99.90;;;;;;5066548;28;20464;-79
2021/07/28 08:33:51;;;;;;;6.70;6.10;;;19.20;99.90;;;;;;5071932;28;20975;-78
2021/07/28 08:36:17;;;;;;;8.80;6.17;;;19.30;99.90;;;;;;5069374;28;20452;-77
2021/07/28 08:38:44;;;;;;;6.87;5.53;;;19.30;99.90;;;;;;5071578;28;20474;-77
2021/07/28 08:41:12;;;;;;;5.93;5.33;;;19.40;99.90;;;;;;5065109;28;20448;-77
2021/07/28 08:43:40;;;;;;;6.87;5.37;;;19.40;99.90;;;;;;5058649;28;20456;-79
2021/07/28 08:46:09;;;;;;;6.23;5.63;;;19.30;99.90;;;;;;5069592;28;20442;-78
2021/07/28 08:48:37;;;;;;;6.70;4.87;;;19.30;99.90;;;;;;5067277;28;20498;-78
2021/07/28 08:51:06;;;;;;;6.10;5.03;;;19.40;99.90;;;;;;5069671;28;20459;-79
2021/07/28 08:53:34;;;;;;;6.00;4.00;;;19.40;99.90;;;;;;5100442;28;20555;-80
2021/07/28 08:56:02;;;;;;;4.70;4.30;;;19.50;99.90;;;;;;5070283;28;20451;-80
2021/07/28 08:58:30;;;;;;;4.73;4.23;;;19.70;99.90;;;;;;5068029;28;20478;-79
2021/07/28 09:00:57;;;;;;;4.27;3.87;;;19.70;99.90;;;;;;5063322;28;20452;-80
2021/07/28 09:03:24;;;;;;;4.50;4.10;;;19.80;99.90;;;;;;5064926;28;20448;-77
2021/07/28 09:05:55;;;;;;;5.90;4.00;;;19.80;99.90;;;;;;5065125;28;20433;-75
2021/07/28 09:08:24;;;;;;;5.80;3.83;;;19.80;99.90;;;;;;5063268;28;20537;-78
2021/07/28 09:10:52;;;;;;;5.60;4.20;;;19.80;99.90;;;;;;5068429;28;20463;-78
2021/07/28 09:13:27;;;;;;;5.73;4.17;;;19.90;99.90;;;;;;5063804;28;20460;-79
2021/07/28 09:15:56;;;;;;;4.60;4.20;;;19.70;99.90;;;;;;5054310;28;20480;-80
2021/07/28 09:18:38;;;;;;;5.10;3.60;;;19.70;99.90;;;;;;5056861;28;20977;-80
2021/07/28 09:21:06;;;;;;;4.80;3.77;;;19.70;99.90;;;;;;5064319;28;20440;-79
2021/07/28 09:23:40;;;;;;;4.03;3.10;;;19.70;99.90;;;;;;5061293;28;20469;-78
2021/07/28 09:26:31;;;;;;;4.47;3.70;;;19.70;99.90;;;;;;5065074;28;20460;-79
2021/07/28 09:29:04;;;;;;;5.00;4.27;;;19.80;99.90;;;;;;5063212;28;21971;-80
2021/07/28 09:43:06;;;;;;;4.00;3.47;;;19.90;99.90;;;;;;5146756;27;20279;-76
2021/07/28 09:45:33;;;;;;;4.00;3.60;;;20.20;99.90;;;;;;5121556;27;20462;-76
2021/07/28 09:48:00;;;;;;;4.67;3.60;;;20.20;99.90;;;;;;5115626;27;20489;-78
2021/07/28 09:50:27;;;;;;;4.07;3.63;;;20.20;99.90;;;;;;5138397;27;20934;-78
2021/07/28 09:53:07;;;;;;;4.20;3.80;;;20.30;99.90;;;;;;5123169;27;20456;-78
2021/07/28 09:55:34;;;;;;;4.60;3.50;;;20.30;99.90;;;;;;5093935;27;20457;-78
2021/07/28 09:58:01;;;;;;;3.60;3.30;;;20.20;99.90;;;;;;5149039;27;20436;-78
2021/07/28 10:00:31;;;;;;;5.40;3.40;;;20.20;99.90;;;;;;5135731;27;20457;-77
2021/07/28 10:03:00;;;;;;;4.10;3.70;;;20.30;99.90;;;;;;5120113;28;20473;-77
2021/07/28 10:05:30;;;;;;;4.03;3.20;;;20.30;99.90;;;;;;5103787;28;20438;-79
2021/07/28 10:08:01;;;;;;;3.33;3.03;;;20.30;99.90;;;;;;5120275;27;20456;-79
2021/07/28 10:10:30;;;;;;;3.70;3.40;;;20.20;99.90;;;;;;5106846;28;20878;-79
2021/07/28 10:12:57;;;;;;;3.90;3.03;;;20.10;99.90;;;;;;5114051;27;20492;-77
2021/07/28 10:15:26;;;;;;;4.90;3.80;;;20.10;99.90;;;;;;5111856;28;20426;-79
2021/07/28 10:17:57;;;;;;;3.93;3.60;;;20.00;99.90;;;;;;5114160;27;20514;-78
2021/07/28 10:20:25;;;;;;;3.90;2.80;;;20.00;99.90;;;;;;5105628;28;20869;-79
2021/07/28 10:22:53;;;;;;;3.50;3.03;;;19.90;99.90;;;;;;5123947;27;20503;-78
2021/07/28 10:25:21;;;;;;;4.60;3.20;;;19.90;99.90;;;;;;5123575;27;20438;-79
2021/07/28 10:27:54;;;;;;;3.90;3.60;;;19.90;99.90;;;;;;5111879;28;20441;-79
2021/07/28 10:30:22;;;;;;;5.20;3.33;;;19.80;99.90;;;;;;5121715;27;20454;-77
2021/07/28 10:32:50;;;;;;;3.47;3.17;;;19.80;99.90;;;;;;5088915;27;21049;-78
2021/07/28 10:35:23;;;;;;;5.20;3.70;;;19.70;99.90;;;;;;5120482;27;20554;-78
2021/07/28 10:37:50;;;;;;;4.03;3.27;;;19.70;99.90;;;;;;5109955;28;20438;-78
2021/07/28 10:40:34;;;;;;;3.47;3.17;;;19.70;99.90;;;;;;5100267;27;20875;-78
2021/07/28 10:43:03;;;;;;;4.30;3.50;;;19.60;99.90;;;;;;5099264;27;20484;-77
2021/07/28 10:45:54;;;;;;;3.90;3.37;;;19.60;99.90;;;;;;5092665;28;20454;-77
2021/07/28 10:48:51;;;;;;;3.43;3.13;;;19.60;99.90;;;;;;5089284;28;21172;-79
2021/07/28 10:51:48;;;;;;;3.27;3.07;;;19.60;99.90;;;;;;5076957;28;20471;-79
2021/07/28 10:54:16;;;;;;;3.40;3.10;;;19.60;99.90;;;;;;5065548;28;20880;-77
2021/07/28 10:57:12;;;;;;;4.23;2.90;;;19.50;99.90;;;;;;5101803;28;20812;-79
2021/07/28 10:59:39;;;;;;;4.00;2.97;;;19.50;99.90;;;;;;5091682;28;20491;-78
2021/07/28 11:02:06;;;;;;;3.60;3.00;;;19.50;99.90;;;;;;5120194;27;20823;-77
2021/07/28 11:04:33;;;;;;;4.97;3.10;;;19.50;99.90;;;;;;5136877;27;20536;-77
2021/07/28 11:07:00;;;;;;;3.27;2.97;;;19.40;99.90;;;;;;5108649;27;20452;-78
2021/07/28 11:09:28;;;;;;;3.60;3.30;;;19.50;99.90;;;;;;5109103;28;20434;-78
2021/07/28 11:11:56;;;;;;;4.17;3.10;;;19.50;99.90;;;;;;5101351;28;20483;-78
2021/07/28 11:14:24;;;;;;;3.27;2.97;;;19.50;99.90;;;;;;5098614;27;20467;-78
2021/07/28 11:16:53;;;;;;;5.63;3.20;;;19.60;99.90;;;;;;5093019;28;20440;-77
2021/07/28 11:19:20;;;;;;;3.40;2.73;;;19.60;99.90;;;;;;5098182;27;20445;-79
2021/07/28 11:21:48;;;;;;;4.33;3.00;;;19.60;99.90;;;;;;5116286;27;20458;-78
2021/07/28 11:24:17;;;;;;;2.90;2.60;;;19.70;99.90;;;;;;5098991;28;20454;-77
2021/07/28 11:26:46;;;;;;;2.70;2.50;;;19.70;99.90;;;;;;5077821;28;20442;-78
2021/07/28 11:29:18;;;;;;;3.40;2.63;;;19.60;99.90;;;;;;5102609;28;20459;-78
2021/07/28 11:31:46;;;;;;;2.97;2.77;;;19.60;99.90;;;;;;5090509;28;20486;-78
2021/07/28 11:34:16;;;;;;;3.80;2.90;;;19.60;99.90;;;;;;5091888;28;20479;-77
2021/07/28 11:36:47;;;;;;;3.13;2.80;;;19.70;99.90;;;;;;5120316;27;20806;-78
2021/07/28 11:39:17;;;;;;;3.03;2.50;;;19.70;99.90;;;;;;5116258;27;20441;-77
2021/07/28 11:41:47;;;;;;;2.70;2.27;;;19.70;99.90;;;;;;5115437;27;21028;-78
2021/07/28 11:44:14;;;;;;;5.33;2.93;;;19.70;99.90;;;;;;5101398;28;20465;-78
2021/07/28 11:46:42;;;;;;;3.17;2.50;;;19.70;99.90;;;;;;5089304;28;20524;-77
2021/07/28 11:49:10;;;;;;;2.40;2.20;;;19.70;99.90;;;;;;5109219;28;20426;-77
2021/07/28 11:51:38;;;;;;;3.60;2.63;;;19.60;99.90;;;;;;5109211;28;20557;-78
2021/07/28 11:54:10;;;;;;;2.70;2.40;;;19.60;99.90;;;;;;5106503;28;20457;-78
2021/07/28 11:56:38;;;;;;;4.80;2.53;;;19.60;99.90;;;;;;5115423;27;20438;-78
2021/07/28 11:59:11;;;;;;;2.70;2.50;;;19.60;99.90;;;;;;5103594;27;20826;-77
2021/07/28 12:01:46;;;;;;;4.53;2.47;;;19.60;99.90;;;;;;5107219;28;20447;-77
2021/07/28 12:04:18;;;;;;;2.47;2.27;;;19.50;99.90;;;;;;5104865;28;20451;-77
2021/07/28 12:06:46;;;;;;;2.60;2.40;;;19.60;99.90;;;;;;5112722;28;20431;-77
2021/07/28 12:09:16;;;;;;;3.37;3.07;;;19.60;99.90;;;;;;5112454;28;20435;-76
2021/07/28 12:11:46;;;;;;;2.30;2.10;;;19.60;99.90;;;;;;5119093;27;20489;-77
2021/07/28 12:14:24;;;;;;;3.77;2.73;;;19.50;99.90;;;;;;5095073;28;20492;-77
2021/07/28 12:16:51;;;;;;;3.20;2.33;;;19.50;99.90;;;;;;5103868;27;20454;-77
2021/07/28 12:19:24;;;;;;;4.40;2.60;;;19.50;99.90;;;;;;5109957;28;20435;-77
2021/07/28 12:21:56;;;;;;;2.43;2.23;;;19.60;99.90;;;;;;5110548;28;20466;-76
2021/07/28 12:24:33;;;;;;;3.30;2.67;;;19.70;99.90;;;;;;5112434;28;20520;-77
2021/07/28 12:27:36;;;;;;;3.33;2.40;;;19.80;99.90;;;;;;5111639;27;20452;-77
2021/07/28 12:30:08;;;;;;;3.20;2.70;;;19.80;99.90;;;;;;5112371;27;20450;-76
2021/07/28 12:32:36;;;;;;;2.93;2.63;;;19.70;99.90;;;;;;5088839;28;20486;-77
2021/07/28 12:35:05;;;;;;;3.27;2.50;;;19.80;99.90;;;;;;5072808;28;20447;-76
2021/07/28 12:37:32;;;;;;;3.10;2.80;;;19.80;99.90;;;;;;5093879;28;20447;-76
2021/07/28 12:40:00;;;;;;;3.53;2.80;;;19.70;99.90;;;;;;5107676;28;20462;-77
2021/07/28 12:42:27;;;;;;;4.50;2.77;;;19.80;99.90;;;;;;5075726;28;20472;-77
2021/07/28 12:44:54;;;;;;;3.53;2.57;;;19.80;99.90;;;;;;5106833;28;21663;-76
2021/07/28 12:47:23;;;;;;;2.60;2.40;;;19.80;99.90;;;;;;5109123;28;20493;-76
2021/07/28 12:49:50;;;;;;;2.57;2.37;;;19.80;99.90;;;;;;5108297;28;20976;-76
2021/07/28 12:52:17;;;;;;;3.80;2.43;;;19.80;99.90;;;;;;5111350;28;20478;-76
2021/07/28 12:54:44;;;;;;;2.63;2.43;;;19.80;99.90;;;;;;5110264;28;20515;-75
2021/07/28 12:57:11;;;;;;;2.37;2.17;;;19.70;99.90;;;;;;5108689;28;20453;-75
2021/07/28 12:59:38;;;;;;;4.10;2.40;;;19.70;99.90;;;;;;5106703;28;20450;-76
2021/07/28 13:02:05;;;;;;;2.40;2.03;;;19.80;99.90;;;;;;5108281;28;20488;-77